createdAt,value
2024-04-21T00:01:23.696Z,3.85
2024-04-21T00:03:53.127Z,3.63
2024-04-21T00:06:19.885Z,3.97
2024-04-21T00:08:49.199Z,4.47
2024-04-21T00:11:15.842Z,3.42
2024-04-21T00:13:47.647Z,4.15
2024-04-21T00:16:14.286Z,4.35
2024-04-21T00:18:43.633Z,4.45
2024-04-21T00:21:10.334Z,3.60
2024-04-21T00:23:40.115Z,3.83
2024-04-21T00:26:06.732Z,3.53
2024-04-21T00:28:35.976Z,3.75
2024-04-21T00:31:05.313Z,3.35
2024-04-21T00:33:34.872Z,4.03
2024-04-21T00:36:01.588Z,2.88
2024-04-21T00:38:30.830Z,3.03
2024-04-21T00:40:57.427Z,3.08
2024-04-21T00:43:26.661Z,4.50
2024-04-21T00:45:53.361Z,2.78
2024-04-21T00:48:25.523Z,3.00
2024-04-21T00:50:54.449Z,3.60
2024-04-21T00:53:25.117Z,2.55
2024-04-21T00:55:52.596Z,2.53
2024-04-21T00:58:22.668Z,3.22
2024-04-21T01:00:49.313Z,3.38
2024-04-21T01:03:18.533Z,3.08
2024-04-21T01:05:49.389Z,3.03
2024-04-21T01:08:19.907Z,2.78
2024-04-21T01:10:46.506Z,3.40
2024-04-21T01:13:15.976Z,1.92
2024-04-21T01:15:42.738Z,3.10
2024-04-21T01:18:12.228Z,2.70
2024-04-21T01:20:38.860Z,2.45
2024-04-21T01:23:10.686Z,2.55
2024-04-21T01:25:37.263Z,2.72
2024-04-21T01:28:06.835Z,2.80
2024-04-21T01:30:33.870Z,2.55
2024-04-21T01:33:03.224Z,1.67
2024-04-21T01:35:30.256Z,2.20
2024-04-21T01:37:59.462Z,1.98
2024-04-21T01:40:28.758Z,2.45
2024-04-21T01:42:58.062Z,2.63
2024-04-21T01:45:24.728Z,2.58
2024-04-21T01:47:53.977Z,3.00
2024-04-21T01:50:20.562Z,5.20
2024-04-21T01:52:49.782Z,5.95
2024-04-21T01:55:16.675Z,7.65
2024-04-21T01:57:49.474Z,7.13
2024-04-21T02:00:16.329Z,5.70
2024-04-21T02:02:45.605Z,5.13
2024-04-21T02:05:12.291Z,5.15
2024-04-21T02:07:41.484Z,3.97
2024-04-21T02:10:10.786Z,4.55
2024-04-21T02:12:37.453Z,3.95
2024-04-21T02:15:09.612Z,3.80
2024-04-21T02:17:36.356Z,3.90
2024-04-21T02:20:05.861Z,3.75
2024-04-21T02:22:32.987Z,3.40
2024-04-21T02:25:02.273Z,3.50
2024-04-21T02:27:29.076Z,3.65
2024-04-21T02:29:58.310Z,2.75
2024-04-21T02:32:27.598Z,1.63
2024-04-21T02:34:56.841Z,1.30
2024-04-21T02:37:23.520Z,1.30
2024-04-21T02:39:52.791Z,1.20
2024-04-21T02:42:19.399Z,1.60
2024-04-21T02:44:48.880Z,1.45
2024-04-21T02:47:15.572Z,1.83
2024-04-21T02:49:48.015Z,3.25
2024-04-21T02:52:14.706Z,1.95
2024-04-21T02:54:43.971Z,1.40
2024-04-21T02:57:10.593Z,1.73
2024-04-21T02:59:39.816Z,1.60
2024-04-21T03:02:06.379Z,1.83
2024-04-21T03:04:35.628Z,1.90
2024-04-21T03:07:05.035Z,1.67
2024-04-21T03:09:34.379Z,1.50
2024-04-21T03:12:00.979Z,1.80
2024-04-21T03:14:30.185Z,1.58
2024-04-21T03:16:56.803Z,1.52
2024-04-21T03:19:26.486Z,1.50
2024-04-21T03:21:53.075Z,1.83
2024-04-21T03:24:24.972Z,1.65
2024-04-21T03:26:51.571Z,1.80
2024-04-21T03:29:20.788Z,1.95
2024-04-21T03:31:47.372Z,1.90
2024-04-21T03:34:16.670Z,1.70
2024-04-21T03:36:43.324Z,2.30
2024-04-21T03:39:12.560Z,2.03
2024-04-21T03:41:44.375Z,2.17
2024-04-21T03:44:13.583Z,1.83
2024-04-21T03:46:42.810Z,2.00
2024-04-21T03:49:09.450Z,2.28
2024-04-21T03:51:38.710Z,2.20
2024-04-21T03:54:05.326Z,2.05
2024-04-21T03:56:34.571Z,2.78
2024-04-21T03:59:03.876Z,3.05
2024-04-21T04:01:33.188Z,2.67
2024-04-21T04:03:59.945Z,2.40
2024-04-21T04:06:29.755Z,4.43
2024-04-21T04:08:57.155Z,2.70
2024-04-21T04:11:26.374Z,2.67
2024-04-21T04:13:52.940Z,2.97
2024-04-21T04:16:24.810Z,2.97
2024-04-21T04:18:51.455Z,3.63
2024-04-21T04:21:20.699Z,4.22
2024-04-21T04:23:47.273Z,3.90
2024-04-21T04:26:16.602Z,4.00
2024-04-21T04:28:43.211Z,3.80
2024-04-21T04:31:12.537Z,3.58
2024-04-21T04:33:41.879Z,4.07
2024-04-21T04:36:11.301Z,3.25
2024-04-21T04:38:37.922Z,4.28
2024-04-21T04:41:07.845Z,3.55
2024-04-21T04:43:34.452Z,3.17
2024-04-21T04:46:03.699Z,3.33
2024-04-21T04:48:32.697Z,4.28
2024-04-21T04:51:06.429Z,4.55
2024-04-21T04:53:33.057Z,4.22
2024-04-21T04:56:02.303Z,4.60
2024-04-21T04:58:29.030Z,5.47
2024-04-21T05:00:58.415Z,4.80
2024-04-21T05:03:25.099Z,5.03
2024-04-21T05:05:54.328Z,3.67
2024-04-21T05:08:23.786Z,4.35
2024-04-21T05:10:53.037Z,3.38
2024-04-21T05:13:22.464Z,3.63
2024-04-21T05:15:49.198Z,3.55
2024-04-21T05:18:18.609Z,3.70
2024-04-21T05:20:45.351Z,3.50
2024-04-21T05:23:14.851Z,3.42
2024-04-21T05:25:44.096Z,5.38
2024-04-21T05:28:13.322Z,4.50
2024-04-21T05:30:40.002Z,4.57
2024-04-21T05:33:09.352Z,4.50
2024-04-21T05:35:36.024Z,4.50
2024-04-21T05:38:06.644Z,4.65
2024-04-21T05:40:33.323Z,4.30
2024-04-21T05:43:05.373Z,5.43
2024-04-21T05:45:32.042Z,5.72
2024-04-21T05:48:01.443Z,5.90
2024-04-21T05:50:28.180Z,6.05
2024-04-21T05:52:57.560Z,5.88
2024-04-21T05:55:24.321Z,6.80
2024-04-21T05:57:53.640Z,5.38
2024-04-21T06:00:23.007Z,5.78
2024-04-21T06:02:52.308Z,6.80
2024-04-21T06:05:19.016Z,4.78
2024-04-21T06:07:48.325Z,4.22
2024-04-21T06:10:15.248Z,5.25
2024-04-21T06:12:44.594Z,4.07
2024-04-21T06:15:13.814Z,3.95
2024-04-21T06:17:43.413Z,5.18
2024-04-21T06:20:12.863Z,4.25
2024-04-21T06:22:39.532Z,3.65
2024-04-21T06:25:09.811Z,3.85
2024-04-21T06:27:36.452Z,3.10
2024-04-21T06:30:05.721Z,3.60
2024-04-21T06:32:32.427Z,4.00
2024-04-21T06:35:05.655Z,3.72
2024-04-21T06:37:33.394Z,4.15
2024-04-21T06:40:02.738Z,4.35
2024-04-21T06:42:29.476Z,3.75
2024-04-21T06:44:58.876Z,3.70
2024-04-21T06:47:28.318Z,4.85
2024-04-21T06:49:58.066Z,3.17
2024-04-21T06:52:27.426Z,3.30
2024-04-21T06:54:56.803Z,3.58
2024-04-21T06:57:23.492Z,3.85
2024-04-21T06:59:52.752Z,3.63
2024-04-21T07:02:19.750Z,3.28
2024-04-21T07:04:49.072Z,3.10
2024-04-21T07:07:15.746Z,3.40
2024-04-21T07:09:47.641Z,2.85
2024-04-21T07:12:14.320Z,3.63
2024-04-21T07:14:43.527Z,2.78
2024-04-21T07:17:10.177Z,2.78
2024-04-21T07:19:39.567Z,3.50
2024-04-21T07:22:06.355Z,4.20
2024-04-21T07:24:35.742Z,3.53
2024-04-21T07:27:05.385Z,4.18
2024-04-21T07:29:34.687Z,5.22
2024-04-21T07:32:04.160Z,4.45
2024-04-21T07:34:30.864Z,4.55
2024-04-21T07:37:00.459Z,5.18
2024-04-21T07:39:28.987Z,5.97
2024-04-21T07:41:58.272Z,6.85
2024-04-21T07:44:27.618Z,6.50
2024-04-21T07:46:56.952Z,6.35
2024-04-21T07:49:23.734Z,7.07
2024-04-21T07:51:53.114Z,6.15
2024-04-21T07:54:19.779Z,7.18
2024-04-21T07:56:49.043Z,6.65
2024-04-21T07:59:15.838Z,5.82
2024-04-21T08:01:47.941Z,6.00
2024-04-21T08:04:14.639Z,6.05
2024-04-21T08:06:43.912Z,5.50
2024-04-21T08:09:21.687Z,6.03
2024-04-21T08:11:59.171Z,5.75
2024-04-21T08:14:25.926Z,5.40
2024-04-21T08:16:57.898Z,5.03
2024-04-21T08:19:24.560Z,5.10
2024-04-21T08:21:53.886Z,4.50
2024-04-21T08:24:20.615Z,3.97
2024-04-21T08:26:50.536Z,4.10
2024-04-21T08:29:17.146Z,3.83
2024-04-21T08:31:46.506Z,3.25
2024-04-21T08:34:15.898Z,4.15
2024-04-21T08:36:45.228Z,3.90
2024-04-21T08:39:11.868Z,3.38
2024-04-21T08:41:42.766Z,3.67
2024-04-21T08:44:12.354Z,3.22
2024-04-21T08:46:41.884Z,2.33
2024-04-21T08:49:08.677Z,3.33
2024-04-21T08:51:41.300Z,2.97
2024-04-21T08:54:08.116Z,3.88
2024-04-21T08:56:37.435Z,3.38
2024-04-21T08:59:04.057Z,3.17
2024-04-21T09:01:33.648Z,3.45
2024-04-21T09:04:01.628Z,3.97
2024-04-21T09:06:31.355Z,3.25
2024-04-21T09:09:00.654Z,4.30
2024-04-21T09:11:30.779Z,3.53
2024-04-21T09:13:57.586Z,3.67
2024-04-21T09:16:27.866Z,3.60
2024-04-21T09:18:54.775Z,3.35
2024-04-21T09:21:24.320Z,3.65
2024-04-21T09:23:51.040Z,3.60
2024-04-21T09:26:23.170Z,3.95
2024-04-21T09:28:50.276Z,3.70
2024-04-21T09:31:19.694Z,3.72
2024-04-21T09:33:46.884Z,3.75
2024-04-21T09:36:16.248Z,3.40
2024-04-21T09:38:43.268Z,3.20
2024-04-21T09:41:12.494Z,3.35
2024-04-21T09:43:43.920Z,3.42
2024-04-21T09:46:14.262Z,3.40
2024-04-21T09:48:42.559Z,3.45
2024-04-21T09:51:11.831Z,2.90
2024-04-21T09:53:38.795Z,3.20
2024-04-21T09:56:10.888Z,3.33
2024-04-21T09:58:40.240Z,3.45
2024-04-21T10:01:15.420Z,3.38
2024-04-21T10:03:42.375Z,3.40
2024-04-21T10:06:11.891Z,3.30
2024-04-21T10:08:39.069Z,3.00
2024-04-21T10:11:08.368Z,3.33
2024-04-21T10:13:35.305Z,2.60
2024-04-21T10:16:04.652Z,3.17
2024-04-21T10:18:34.610Z,3.15
2024-04-21T10:21:05.920Z,2.88
2024-04-21T10:23:33.240Z,2.75
2024-04-21T10:26:04.337Z,3.00
2024-04-21T10:28:31.014Z,2.88
2024-04-21T10:31:06.809Z,2.72
2024-04-21T10:33:37.250Z,2.47
2024-04-21T10:36:06.731Z,2.65
2024-04-21T10:38:33.376Z,2.95
2024-04-21T10:41:02.625Z,3.03
2024-04-21T10:43:30.401Z,3.00
2024-04-21T10:46:00.481Z,2.63
2024-04-21T10:48:27.600Z,2.70
2024-04-21T10:51:00.082Z,2.63
2024-04-21T10:53:27.139Z,3.05
2024-04-21T10:55:57.107Z,3.30
2024-04-21T10:58:23.981Z,2.97
2024-04-21T11:00:53.371Z,2.58
2024-04-21T11:03:20.113Z,2.67
2024-04-21T11:05:52.209Z,2.80
2024-04-21T11:08:24.644Z,3.22
2024-04-21T11:10:53.887Z,3.47
2024-04-21T11:13:20.591Z,3.08
2024-04-21T11:15:49.834Z,3.00
2024-04-21T11:18:17.432Z,2.63
2024-04-21T11:20:46.890Z,2.83
2024-04-21T11:23:17.834Z,2.45
2024-04-21T11:25:47.566Z,2.22
2024-04-21T11:28:17.693Z,2.33
2024-04-21T11:30:44.456Z,2.15
2024-04-21T11:33:14.316Z,2.42
2024-04-21T11:35:41.194Z,2.05
2024-04-21T11:38:10.435Z,2.38
2024-04-21T11:40:40.067Z,2.08
2024-04-21T11:43:15.305Z,2.30
2024-04-21T11:45:44.417Z,2.40
2024-04-21T11:48:13.857Z,2.33
2024-04-21T11:50:40.596Z,2.30
2024-04-21T11:53:10.046Z,1.95
2024-04-21T11:55:36.923Z,2.10
2024-04-21T11:58:06.420Z,2.50
2024-04-21T12:00:35.793Z,1.85
2024-04-21T12:03:05.148Z,2.13
2024-04-21T12:05:31.795Z,1.65
2024-04-21T12:08:01.051Z,1.88
2024-04-21T12:10:27.844Z,2.10
2024-04-21T12:12:57.147Z,1.90
2024-04-21T12:15:23.857Z,2.25
2024-04-21T12:17:56.757Z,1.50
2024-04-21T12:20:23.457Z,2.00
2024-04-21T12:22:52.750Z,1.60
2024-04-21T12:25:19.542Z,1.60
2024-04-21T12:27:48.952Z,1.58
2024-04-21T12:30:15.952Z,1.60
2024-04-21T12:32:45.242Z,1.98
2024-04-21T12:35:14.776Z,1.73
2024-04-21T12:37:44.439Z,1.80
2024-04-21T12:40:11.403Z,2.15
2024-04-21T12:42:41.429Z,2.13
2024-04-21T12:45:08.686Z,1.50
2024-04-21T12:47:39.595Z,1.60
2024-04-21T12:50:06.846Z,1.67
2024-04-21T12:52:38.878Z,1.50
2024-04-21T12:55:05.820Z,2.20
2024-04-21T12:57:35.386Z,1.65
2024-04-21T13:00:02.156Z,2.10
2024-04-21T13:02:31.479Z,2.05
2024-04-21T13:04:58.470Z,1.98
2024-04-21T13:07:27.786Z,1.63
2024-04-21T13:09:57.139Z,1.90
2024-04-21T13:12:29.750Z,1.70
2024-04-21T13:14:57.305Z,2.20
2024-04-21T13:17:26.608Z,1.73
2024-04-21T13:19:53.267Z,2.10
2024-04-21T13:22:22.649Z,1.70
2024-04-21T13:24:49.319Z,1.98
2024-04-21T13:27:23.452Z,2.10
2024-04-21T13:29:50.109Z,1.90
2024-04-21T13:32:19.389Z,2.08
2024-04-21T13:34:46.077Z,1.70
2024-04-21T13:37:15.391Z,1.70
2024-04-21T13:39:42.097Z,1.80
2024-04-21T13:42:11.364Z,2.10
2024-04-21T13:44:40.686Z,1.75
2024-04-21T13:47:10.251Z,1.80
2024-04-21T13:49:37.088Z,1.85
2024-04-21T13:52:07.192Z,1.42
2024-04-21T13:54:35.325Z,1.40
2024-04-21T13:57:04.609Z,1.30
2024-04-21T13:59:31.360Z,1.35
2024-04-21T14:02:03.548Z,1.50
2024-04-21T14:04:30.187Z,1.50
2024-04-21T14:06:59.476Z,1.60
2024-04-21T14:09:26.296Z,1.63
2024-04-21T14:11:55.777Z,2.30
2024-04-21T14:14:22.963Z,2.00
2024-04-21T14:16:52.297Z,2.30
2024-04-21T14:19:21.776Z,1.80
2024-04-21T14:21:51.122Z,1.90
2024-04-21T14:24:17.787Z,2.05
2024-04-21T14:26:47.145Z,2.58
2024-04-21T14:29:13.832Z,2.25
2024-04-21T14:31:43.800Z,2.10
2024-04-21T14:34:10.491Z,1.73
2024-04-21T14:36:42.369Z,1.92
2024-04-21T14:39:09.121Z,1.80
2024-04-21T14:41:39.986Z,1.90
2024-04-21T14:44:08.573Z,2.22
2024-04-21T14:46:37.997Z,1.75
2024-04-21T14:49:08.011Z,2.05
2024-04-21T14:51:38.438Z,2.03
2024-04-21T14:54:08.738Z,1.90
2024-04-21T14:56:38.043Z,2.28
2024-04-21T14:59:04.723Z,2.00
2024-04-21T15:01:33.989Z,2.40
2024-04-21T15:04:02.212Z,1.92
2024-04-21T15:06:31.518Z,2.17
2024-04-21T15:09:00.453Z,1.95
2024-04-21T15:11:34.692Z,1.70
2024-04-21T15:14:01.484Z,1.75
2024-04-21T15:16:36.061Z,1.60
2024-04-21T15:19:04.529Z,1.55
2024-04-21T15:21:34.715Z,1.60
2024-04-21T15:24:01.435Z,1.40
2024-04-21T15:26:33.324Z,1.70
2024-04-21T15:29:00.078Z,1.90
2024-04-21T15:31:29.391Z,1.80
2024-04-21T15:33:56.150Z,1.88
2024-04-21T15:36:25.536Z,1.58
2024-04-21T15:38:52.407Z,1.70
2024-04-21T15:41:21.690Z,1.48
2024-04-21T15:43:50.950Z,1.60
2024-04-21T15:46:21.292Z,1.67
2024-04-21T15:48:48.010Z,1.42
2024-04-21T15:51:21.787Z,1.77
2024-04-21T15:53:48.798Z,1.85
2024-04-21T15:56:18.121Z,1.50
2024-04-21T15:58:44.827Z,1.85
2024-04-21T16:01:16.785Z,1.80
2024-04-21T16:03:43.535Z,1.90
2024-04-21T16:06:12.891Z,2.10
2024-04-21T16:08:39.553Z,2.08
2024-04-21T16:11:08.810Z,1.92
2024-04-21T16:13:35.539Z,1.92
2024-04-21T16:16:05.019Z,1.90
2024-04-21T16:18:37.165Z,2.00
2024-04-21T16:21:06.667Z,2.25
2024-04-21T16:23:33.313Z,2.20
2024-04-21T16:26:02.525Z,2.00
2024-04-21T16:28:29.282Z,1.80
2024-04-21T16:30:59.552Z,1.95
2024-04-21T16:33:26.580Z,2.00
2024-04-21T16:36:00.312Z,2.15
2024-04-21T16:38:27.362Z,1.75
2024-04-21T16:40:56.887Z,1.75
2024-04-21T16:43:23.812Z,1.48
2024-04-21T16:45:57.282Z,1.60
2024-04-21T16:48:24.576Z,1.52
2024-04-21T16:50:54.351Z,1.65
2024-04-21T16:53:24.233Z,1.70
2024-04-21T16:55:57.135Z,1.65
2024-04-21T16:58:24.630Z,1.73
2024-04-21T17:00:54.506Z,1.80
2024-04-21T17:03:21.519Z,1.67
2024-04-21T17:05:52.116Z,1.50
2024-04-21T17:08:23.065Z,1.70
2024-04-21T17:10:55.314Z,1.42
2024-04-21T17:13:21.981Z,1.73
2024-04-21T17:15:51.251Z,1.88
2024-04-21T17:20:47.311Z,1.60
2024-04-21T17:23:13.972Z,1.70
2024-04-21T17:25:44.365Z,1.88
2024-04-21T17:28:16.233Z,2.08
2024-04-21T17:30:45.558Z,2.05
2024-04-21T17:33:12.333Z,2.03
2024-04-21T17:35:41.660Z,1.65
2024-04-21T17:38:08.440Z,1.80
2024-04-21T17:40:37.949Z,1.92
2024-04-21T17:43:05.229Z,2.00
2024-04-21T17:45:37.562Z,1.70
2024-04-21T17:48:06.989Z,2.00
2024-04-21T17:50:37.032Z,1.90
2024-04-21T17:53:04.311Z,2.25
2024-04-21T17:55:34.051Z,1.70
2024-04-21T17:58:01.040Z,2.00
2024-04-21T18:00:31.082Z,1.90
2024-04-21T18:03:00.503Z,1.75
2024-04-21T18:05:31.431Z,2.10
2024-04-21T18:07:58.685Z,2.67
2024-04-21T18:10:28.084Z,1.80
2024-04-21T18:12:54.959Z,1.95
2024-04-21T18:15:24.545Z,1.77
2024-04-21T18:17:51.530Z,2.22
2024-04-21T18:20:23.491Z,1.50
2024-04-21T18:22:50.155Z,1.70
2024-04-21T18:25:19.933Z,1.90
2024-04-21T18:27:46.819Z,2.15
2024-04-21T18:30:16.210Z,5.18
2024-04-21T18:32:42.980Z,4.40
2024-04-21T18:35:13.182Z,2.85
2024-04-21T18:37:42.698Z,2.97
2024-04-21T18:40:12.222Z,2.53
2024-04-21T18:42:38.951Z,2.15
2024-04-21T18:45:10.873Z,2.22
2024-04-21T18:47:37.587Z,1.88
2024-04-21T18:50:08.264Z,2.13
2024-04-21T18:52:37.476Z,2.00
2024-04-21T18:55:10.686Z,2.08
2024-04-21T18:57:37.390Z,2.00
2024-04-21T19:00:07.155Z,1.90
2024-04-21T19:02:35.736Z,1.83
2024-04-21T19:05:05.172Z,2.10
2024-04-21T19:07:31.933Z,2.20
2024-04-21T19:10:06.486Z,1.73
2024-04-21T19:12:36.325Z,2.00
2024-04-21T19:15:06.300Z,2.33
2024-04-21T19:17:33.305Z,1.85
2024-04-21T19:20:02.940Z,2.47
2024-04-21T19:22:29.940Z,2.30
2024-04-21T19:24:59.463Z,2.78
2024-04-21T19:27:26.777Z,2.42
2024-04-21T19:29:58.995Z,2.50
2024-04-21T19:32:25.787Z,2.05
2024-04-21T19:34:55.121Z,2.53
2024-04-21T19:37:21.812Z,2.55
2024-04-21T19:39:51.089Z,2.60
2024-04-21T19:42:17.889Z,2.80
2024-04-21T19:44:47.147Z,2.90
2024-04-21T19:47:19.115Z,2.65
2024-04-21T19:49:46.075Z,3.08
2024-04-21T19:52:15.378Z,3.20
2024-04-21T19:54:42.042Z,3.55
2024-04-21T19:57:11.274Z,3.08
2024-04-21T19:59:38.977Z,3.08
2024-04-21T20:02:09.250Z,3.45
2024-04-21T20:04:38.779Z,3.55
2024-04-21T20:07:08.117Z,3.75
2024-04-21T20:09:34.839Z,3.83
2024-04-21T20:12:04.182Z,4.03
2024-04-21T20:14:51.070Z,4.60
2024-04-21T20:17:36.408Z,4.00
2024-04-21T20:20:09.230Z,4.07
2024-04-21T20:22:38.530Z,3.58
2024-04-21T20:25:08.177Z,3.65
2024-04-21T20:27:34.907Z,3.45
2024-04-21T20:30:04.221Z,4.60
2024-04-21T20:32:31.019Z,4.10
2024-04-21T20:35:00.860Z,4.45
2024-04-21T20:37:30.362Z,5.07
2024-04-21T20:39:59.726Z,4.85
2024-04-21T20:42:26.411Z,4.53
2024-04-21T20:44:55.722Z,5.28
2024-04-21T20:47:22.416Z,4.18
2024-04-21T20:49:51.777Z,4.53
2024-04-21T20:52:18.451Z,4.78
2024-04-21T20:54:50.476Z,4.60
2024-04-21T20:57:17.142Z,4.65
2024-04-21T20:59:47.181Z,4.63
2024-04-21T21:02:13.917Z,4.93
2024-04-21T21:04:43.267Z,4.65
2024-04-21T21:07:10.378Z,4.57
2024-04-21T21:09:39.984Z,5.22
2024-04-21T21:12:09.606Z,5.88
2024-04-21T21:14:39.744Z,5.22
2024-04-21T21:17:06.482Z,5.40
2024-04-21T21:19:35.763Z,4.78
2024-04-21T21:22:02.535Z,5.68
2024-04-21T21:24:31.921Z,4.97
2024-04-21T21:26:58.535Z,5.25
2024-04-21T21:29:30.394Z,5.60
2024-04-21T21:31:57.046Z,5.50
2024-04-21T21:34:26.305Z,5.57
2024-04-21T21:36:52.975Z,5.80
2024-04-21T21:41:57.248Z,5.30
2024-04-21T21:44:23.894Z,4.68
2024-04-21T21:46:55.722Z,5.15
2024-04-21T21:49:22.400Z,4.68
2024-04-21T21:51:51.679Z,5.03
2024-04-21T21:54:18.246Z,4.65
2024-04-21T21:56:47.490Z,5.50
2024-04-21T21:59:14.095Z,5.00
2024-04-21T22:01:43.442Z,4.72
2024-04-21T22:04:12.771Z,5.00
2024-04-21T22:06:42.106Z,5.25
2024-04-21T22:09:08.865Z,5.50
2024-04-21T22:11:38.119Z,6.05
2024-04-21T22:14:04.762Z,5.05
2024-04-21T22:16:34.037Z,5.22
2024-04-21T22:19:00.660Z,4.70
2024-04-21T22:21:32.478Z,6.03
2024-04-21T22:23:59.165Z,5.38
2024-04-21T22:26:28.463Z,5.47
2024-04-21T22:28:55.360Z,4.80
2024-04-21T22:31:24.564Z,5.57
2024-04-21T22:33:51.183Z,5.30
2024-04-21T22:36:20.390Z,5.40
2024-04-21T22:38:49.598Z,5.07
2024-04-21T22:41:18.796Z,4.65
2024-04-21T22:43:45.392Z,4.22
2024-04-21T22:46:14.774Z,4.40
2024-04-21T22:48:41.425Z,4.60
2024-04-21T22:51:10.689Z,4.15
2024-04-21T22:53:37.263Z,4.65
2024-04-21T22:56:09.435Z,4.40
2024-04-21T22:58:36.118Z,4.30
2024-04-21T23:01:08.310Z,3.85
2024-04-21T23:03:36.627Z,4.45
2024-04-21T23:06:06.294Z,4.13
2024-04-21T23:08:33.104Z,4.32
2024-04-21T23:11:02.841Z,4.47
2024-04-21T23:13:32.212Z,4.70
2024-04-21T23:16:05.299Z,4.38
2024-04-21T23:18:32.115Z,4.18
2024-04-21T23:21:01.409Z,4.53
2024-04-21T23:23:28.084Z,3.97
2024-04-21T23:25:57.292Z,3.97
2024-04-21T23:28:23.875Z,3.90
2024-04-21T23:30:55.719Z,4.13
2024-04-21T23:33:22.426Z,4.50
2024-04-21T23:35:51.636Z,4.10
2024-04-21T23:38:18.233Z,4.65
2024-04-21T23:40:47.480Z,4.00
2024-04-21T23:43:14.131Z,4.50
2024-04-21T23:45:43.824Z,4.53
2024-04-21T23:48:13.216Z,4.55
2024-04-21T23:50:42.456Z,4.55
2024-04-21T23:53:09.068Z,4.65
2024-04-21T23:55:38.441Z,3.85
2024-04-21T23:58:05.090Z,4.78
